Time;durP1;ratioP1;P1;durP2;ratioP2;P2;SDS_P1;SDS_P2;PMS_P1;PMS_P2;Temp;Humidity;BMP_temperature;BMP_pressure;BME280_temperature;BME280_humidity;BME280_pressure;Samples;Min_cycle;Max_cycle;Signal;HPM_P1;HPM_P2
2024/01/31 00:01:03;;;;;;;17.10;9.30;;;;;;;;;;136738;1278;22589;-79
2024/01/31 00:04:21;;;;;;;21.50;9.50;;;;;;;;;;137019;1278;22287;-78
2024/01/31 00:07:23;;;;;;;18.40;9.20;;;;;;;;;;137099;1273;22397;-78
2024/01/31 00:10:26;;;;;;;19.00;9.80;;;;;;;;;;137048;1262;22602;-78
2024/01/31 00:13:28;;;;;;;17.80;10.60;;;;;;;;;;137412;1273;22632;-82
2024/01/31 00:16:31;;;;;;;16.70;9.90;;;;;;;;;;137083;1273;22154;-81
2024/01/31 00:19:33;;;;;;;17.80;10.30;;;;;;;;;;136952;1258;22422;-82
2024/01/31 00:22:36;;;;;;;21.80;10.50;;;;;;;;;;137445;1273;22546;-82
2024/01/31 00:25:38;;;;;;;18.20;10.20;;;;;;;;;;137104;1273;22200;-80
2024/01/31 00:28:41;;;;;;;17.70;9.90;;;;;;;;;;137078;1273;22215;-80
2024/01/31 00:31:43;;;;;;;18.70;10.20;;;;;;;;;;137162;1273;22601;-81
2024/01/31 00:34:45;;;;;;;17.90;10.40;;;;;;;;;;137388;1273;22259;-81
2024/01/31 00:37:48;;;;;;;19.30;11.00;;;;;;;;;;137040;1273;22361;-82
2024/01/31 00:40:50;;;;;;;16.60;9.90;;;;;;;;;;137018;1273;22610;-82
2024/01/31 00:43:53;;;;;;;19.60;10.40;;;;;;;;;;137134;1273;22315;-81
2024/01/31 00:46:55;;;;;;;22.00;10.60;;;;;;;;;;137001;1273;22217;-80
2024/01/31 00:49:58;;;;;;;17.70;10.20;;;;;;;;;;137002;1273;22294;-82
2024/01/31 00:53:00;;;;;;;14.60;10.80;;;;;;;;;;137481;1273;22610;-81
2024/01/31 00:56:03;;;;;;;14.90;10.60;;;;;;;;;;137216;1273;22256;-81
2024/01/31 00:59:05;;;;;;;20.60;10.60;;;;;;;;;;137019;1273;22277;-80
2024/01/31 01:02:07;;;;;;;18.80;10.50;;;;;;;;;;136942;1273;23508;-81
2024/01/31 01:05:10;;;;;;;21.40;11.60;;;;;;;;;;137287;1273;22228;-80
2024/01/31 01:08:12;;;;;;;22.40;11.70;;;;;;;;;;136990;1273;22185;-79
2024/01/31 01:11:15;;;;;;;19.10;11.40;;;;;;;;;;137044;1273;22485;-78
2024/01/31 01:14:17;;;;;;;21.60;11.60;;;;;;;;;;137398;1273;22270;-81
2024/01/31 01:17:20;;;;;;;21.70;12.10;;;;;;;;;;137157;1273;22894;-81
2024/01/31 01:20:22;;;;;;;23.10;12.00;;;;;;;;;;137068;1273;22223;-82
2024/01/31 01:23:25;;;;;;;20.80;12.30;;;;;;;;;;137551;1273;22340;-79
2024/01/31 01:26:27;;;;;;;19.90;11.40;;;;;;;;;;137041;1273;24228;-81
2024/01/31 01:29:30;;;;;;;21.30;12.00;;;;;;;;;;137023;1273;22645;-82
2024/01/31 01:32:32;;;;;;;20.60;12.20;;;;;;;;;;137217;1273;22557;-81
2024/01/31 01:35:35;;;;;;;20.00;11.80;;;;;;;;;;137116;1273;22291;-81
2024/01/31 01:38:37;;;;;;;16.70;10.80;;;;;;;;;;137041;1273;23016;-82
2024/01/31 01:41:40;;;;;;;20.10;12.60;;;;;;;;;;137011;1273;23007;-81
2024/01/31 01:44:42;;;;;;;21.20;11.80;;;;;;;;;;137399;1273;22249;-81
2024/01/31 01:47:48;;;;;;;22.80;13.20;;;;;;;;;;137049;1273;22432;-79
2024/01/31 01:50:50;;;;;;;21.90;12.40;;;;;;;;;;136963;1273;22148;-81
2024/01/31 01:53:53;;;;;;;19.10;12.30;;;;;;;;;;137418;1273;22550;-82
2024/01/31 01:56:55;;;;;;;22.00;12.30;;;;;;;;;;136973;1273;22201;-82
2024/01/31 01:59:58;;;;;;;23.70;12.80;;;;;;;;;;136953;1273;22415;-81
2024/01/31 02:03:00;;;;;;;23.80;12.80;;;;;;;;;;137371;1273;22548;-82
2024/01/31 02:06:03;;;;;;;21.10;11.70;;;;;;;;;;137198;1273;22304;-82
2024/01/31 02:09:06;;;;;;;18.40;11.40;;;;;;;;;;137058;1273;22547;-81
2024/01/31 02:12:08;;;;;;;23.60;13.10;;;;;;;;;;137144;1273;22968;-81
2024/01/31 02:15:11;;;;;;;24.00;12.60;;;;;;;;;;137370;1249;22550;-82
2024/01/31 02:18:13;;;;;;;20.00;13.20;;;;;;;;;;137048;1270;22290;-82
2024/01/31 02:21:16;;;;;;;25.30;13.70;;;;;;;;;;136917;1273;22549;-81
2024/01/31 02:24:18;;;;;;;27.50;13.50;;;;;;;;;;137407;1273;22608;-81
2024/01/31 02:27:20;;;;;;;27.90;14.70;;;;;;;;;;137139;1273;22156;-83
2024/01/31 02:30:23;;;;;;;23.60;13.70;;;;;;;;;;137007;1273;22213;-81
2024/01/31 02:33:26;;;;;;;24.70;14.30;;;;;;;;;;137492;1273;23008;-81
2024/01/31 02:36:28;;;;;;;23.40;13.90;;;;;;;;;;137397;1273;22182;-82
2024/01/31 02:39:33;;;;;;;20.40;12.70;;;;;;;;;;137229;1273;22219;-80
2024/01/31 02:42:35;;;;;;;;;;;;;;;;;;137248;1273;22517;-83
2024/01/31 02:45:38;;;;;;;22.30;13.70;;;;;;;;;;137494;1273;22232;-82
2024/01/31 02:48:40;;;;;;;21.80;13.90;;;;;;;;;;137107;1273;22574;-81
2024/01/31 02:51:43;;;;;;;26.20;14.40;;;;;;;;;;137168;1273;22542;-81
2024/01/31 02:54:45;;;;;;;26.90;14.20;;;;;;;;;;137546;1273;22295;-81
2024/01/31 02:57:47;;;;;;;22.40;14.20;;;;;;;;;;137134;1273;22556;-82
2024/01/31 03:00:50;;;;;;;22.20;13.70;;;;;;;;;;137355;1273;22262;-82
2024/01/31 03:03:52;;;;;;;25.10;14.50;;;;;;;;;;137458;1273;22624;-80
2024/01/31 03:06:55;;;;;;;21.00;13.40;;;;;;;;;;137234;1273;22229;-80
2024/01/31 03:09:57;;;;;;;17.20;12.50;;;;;;;;;;137424;1273;22236;-80
2024/01/31 03:13:00;;;;;;;24.70;14.30;;;;;;;;;;137447;1273;22563;-80
2024/01/31 03:16:02;;;;;;;24.30;14.10;;;;;;;;;;137502;1273;22659;-78
2024/01/31 03:19:05;;;;;;;22.00;14.40;;;;;;;;;;137543;1273;22432;-80
2024/01/31 03:22:08;;;;;;;25.40;15.50;;;;;;;;;;137108;1273;22205;-81
2024/01/31 03:25:11;;;;;;;25.10;14.30;;;;;;;;;;137551;1273;22227;-82
2024/01/31 03:28:13;;;;;;;22.60;14.20;;;;;;;;;;137094;1268;22442;-81
2024/01/31 03:31:16;;;;;;;24.20;13.90;;;;;;;;;;137003;1273;22771;-82
2024/01/31 03:34:21;;;;;;;;;;;;;;;;;;137461;1273;22532;-81
2024/01/31 03:37:23;;;;;;;21.80;14.30;;;;;;;;;;137334;1273;22271;-82
2024/01/31 03:40:26;;;;;;;22.30;14.30;;;;;;;;;;137174;1273;22199;-82
2024/01/31 03:43:28;;;;;;;22.10;13.90;;;;;;;;;;136891;1273;22546;-82
2024/01/31 03:46:30;;;;;;;20.70;14.50;;;;;;;;;;137437;1270;22618;-82
2024/01/31 03:49:33;;;;;;;25.60;14.70;;;;;;;;;;137213;1273;22632;-82
2024/01/31 03:52:36;;;;;;;21.30;15.30;;;;;;;;;;137378;1273;22578;-82
2024/01/31 03:55:39;;;;;;;22.50;15.00;;;;;;;;;;137328;1269;22476;-82
2024/01/31 03:58:41;;;;;;;20.40;14.30;;;;;;;;;;137521;1273;22218;-82
2024/01/31 04:01:43;;;;;;;25.90;15.20;;;;;;;;;;137301;1273;22264;-82
2024/01/31 04:04:46;;;;;;;21.00;14.30;;;;;;;;;;137470;1273;22686;-82
2024/01/31 04:07:48;;;;;;;21.60;14.40;;;;;;;;;;137467;1270;22199;-80
2024/01/31 04:10:52;;;;;;;24.10;15.50;;;;;;;;;;137455;1273;22312;-80
2024/01/31 04:13:54;;;;;;;22.00;15.10;;;;;;;;;;137500;1273;22114;-82
2024/01/31 04:16:57;;;;;;;31.00;15.30;;;;;;;;;;137501;1273;22158;-81
2024/01/31 04:19:59;;;;;;;22.10;14.70;;;;;;;;;;137251;1270;22212;-82
2024/01/31 04:23:01;;;;;;;25.30;15.50;;;;;;;;;;137136;1273;24233;-79
2024/01/31 04:26:04;;;;;;;21.30;14.20;;;;;;;;;;137484;1273;22568;-82
2024/01/31 04:29:06;;;;;;;24.50;15.80;;;;;;;;;;137147;1262;22315;-82
2024/01/31 04:32:09;;;;;;;22.70;14.20;;;;;;;;;;136992;1273;22557;-83
2024/01/31 04:35:12;;;;;;;24.40;15.50;;;;;;;;;;137512;1273;22763;-83
2024/01/31 04:38:14;;;;;;;25.20;15.80;;;;;;;;;;137184;1273;22260;-83
2024/01/31 04:41:17;;;;;;;22.00;15.10;;;;;;;;;;137198;1273;22247;-80
2024/01/31 04:44:19;;;;;;;24.60;15.70;;;;;;;;;;137223;1268;22549;-81
2024/01/31 04:47:25;;;;;;;34.30;16.10;;;;;;;;;;137280;1273;23096;-81
2024/01/31 04:50:28;;;;;;;32.50;16.20;;;;;;;;;;137152;1273;22588;-81
2024/01/31 04:53:30;;;;;;;28.30;16.40;;;;;;;;;;136975;1270;22544;-82
2024/01/31 04:56:33;;;;;;;24.90;15.90;;;;;;;;;;137426;1273;22329;-81
